Time;durP1;ratioP1;P1;durP2;ratioP2;P2;SDS_P1;SDS_P2;PMS_P1;PMS_P2;Temp;Humidity;BMP_temperature;BMP_pressure;BME280_temperature;BME280_humidity;BME280_pressure;Samples;Min_cycle;Max_cycle;Signal;HPM_P1;HPM_P2
2022/05/01 00:00:33;;;;;;;;;;;21.30;38.80;;;;;;5051269;28;19999;-61
2022/05/01 00:02:59;;;;;;;;;;;21.30;38.80;;;;;;5051472;28;20245;-61
2022/05/01 00:05:24;;;;;;;;;;;21.30;38.90;;;;;;5050644;28;20070;-61
2022/05/01 00:07:50;;;;;;;;;;;21.30;38.90;;;;;;5053151;28;19913;-61
2022/05/01 00:10:15;;;;;;;;;;;21.30;38.90;;;;;;5071240;28;19913;-61
2022/05/01 00:12:41;;;;;;;;;;;21.30;38.90;;;;;;5070544;28;20291;-61
2022/05/01 00:15:07;;;;;;;;;;;21.30;39.00;;;;;;5074585;28;19915;-61
2022/05/01 00:17:33;;;;;;;;;;;21.30;38.90;;;;;;5075865;28;19912;-61
2022/05/01 00:19:58;;;;;;;;;;;21.30;38.90;;;;;;5075689;28;19916;-61
2022/05/01 00:22:24;;;;;;;;;;;21.30;38.90;;;;;;5075751;28;19943;-61
2022/05/01 00:24:49;;;;;;;;;;;21.30;39.00;;;;;;5063233;28;20384;-61
2022/05/01 00:27:15;;;;;;;;;;;21.30;39.00;;;;;;5055605;28;20491;-61
2022/05/01 00:29:40;;;;;;;;;;;21.30;39.00;;;;;;5055075;28;19913;-61
2022/05/01 00:32:06;;;;;;;;;;;21.30;39.00;;;;;;5055882;28;19916;-61
2022/05/01 00:37:15;;;;;;;;;;;21.30;39.00;;;;;;5055607;28;19912;-61
2022/05/01 00:39:41;;;;;;;;;;;21.30;38.90;;;;;;5072627;28;20292;-61
2022/05/01 00:42:06;;;;;;;;;;;21.30;39.00;;;;;;5075447;28;19908;-61
2022/05/01 00:44:32;;;;;;;;;;;21.20;38.90;;;;;;5074537;28;19924;-61
2022/05/01 00:46:59;;;;;;;;;;;21.20;38.90;;;;;;5075380;28;19912;-61
2022/05/01 00:49:25;;;;;;;;;;;21.20;38.90;;;;;;5075183;28;20271;-61
2022/05/01 00:52:00;;;;;;;;;;;21.20;38.90;;;;;;5075146;28;20027;-61
2022/05/01 00:54:27;;;;;;;;;;;21.20;38.90;;;;;;5073326;28;19947;-61
2022/05/01 00:56:53;;;;;;;;;;;21.20;39.00;;;;;;5075226;28;19964;-61
2022/05/01 00:59:19;;;;;;;;;;;21.20;38.90;;;;;;5074540;28;19916;-61
2022/05/01 01:01:45;;;;;;;;;;;21.20;39.00;;;;;;5073749;28;19912;-61
2022/05/01 01:04:11;;;;;;;;;;;21.20;39.00;;;;;;5074814;28;19915;-61
2022/05/01 01:06:37;;;;;;;;;;;21.20;38.90;;;;;;5074813;28;20364;-62
2022/05/01 01:09:03;;;;;;;;;;;21.20;38.90;;;;;;5073632;28;19909;-61
2022/05/01 01:11:28;;;;;;;;;;;21.20;39.00;;;;;;5074585;28;19912;-61
2022/05/01 01:13:54;;;;;;;;;;;21.20;39.00;;;;;;5064416;28;19913;-61
2022/05/01 01:16:20;;;;;;;;;;;21.10;39.00;;;;;;5054817;28;19909;-60
2022/05/01 01:18:47;;;;;;;;;;;21.20;39.00;;;;;;5054730;28;20003;-61
2022/05/01 01:21:12;;;;;;;;;;;21.10;39.00;;;;;;5054529;28;19909;-61
2022/05/01 01:23:39;;;;;;;;;;;21.10;39.00;;;;;;5053334;28;19916;-61
2022/05/01 01:26:05;;;;;;;;;;;21.10;39.00;;;;;;5051628;28;19909;-61
2022/05/01 01:28:31;;;;;;;;;;;21.10;39.00;;;;;;5054401;28;19931;-61
2022/05/01 01:33:42;;;;;;;;;;;21.10;39.10;;;;;;5054351;28;19916;-61
2022/05/01 01:36:08;;;;;;;;;;;21.10;39.10;;;;;;5069670;28;19909;-61
2022/05/01 01:38:33;;;;;;;;;;;21.10;39.10;;;;;;5061310;28;20006;-61
2022/05/01 01:40:59;;;;;;;;;;;21.00;39.00;;;;;;5073835;28;19962;-61
2022/05/01 01:43:25;;;;;;;;;;;21.10;39.10;;;;;;5072966;28;19909;-61
2022/05/01 01:45:51;;;;;;;;;;;21.00;39.10;;;;;;5072333;28;19927;-61
2022/05/01 01:48:17;;;;;;;;;;;21.10;39.10;;;;;;5074207;28;19912;-61
2022/05/01 01:50:43;;;;;;;;;;;21.00;39.10;;;;;;5072755;28;19916;-61
2022/05/01 01:53:09;;;;;;;;;;;21.00;39.10;;;;;;5065084;28;20253;-61
2022/05/01 01:55:37;;;;;;;;;;;21.00;39.10;;;;;;5053517;28;19913;-61
2022/05/01 01:58:02;;;;;;;;;;;21.00;39.10;;;;;;5054072;28;19909;-61
2022/05/01 02:00:28;;;;;;;;;;;21.00;39.10;;;;;;5052329;28;20419;-60
2022/05/01 02:03:06;;;;;;;;;;;21.00;39.20;;;;;;5053920;28;20482;-61
2022/05/01 02:05:32;;;;;;;;;;;21.00;39.20;;;;;;5052831;28;20319;-61
2022/05/01 02:07:57;;;;;;;;;;;21.00;39.20;;;;;;5057410;28;20034;-61
2022/05/01 02:10:23;;;;;;;;;;;21.00;39.20;;;;;;5072149;28;19908;-61
2022/05/01 02:12:48;;;;;;;;;;;20.90;39.10;;;;;;5072421;28;19961;-61
2022/05/01 02:15:14;;;;;;;;;;;20.90;39.10;;;;;;5073177;28;19912;-61
2022/05/01 02:17:40;;;;;;;;;;;20.90;39.20;;;;;;5073846;28;19912;-61
2022/05/01 02:20:06;;;;;;;;;;;20.90;39.20;;;;;;5072059;28;19993;-61
2022/05/01 02:22:32;;;;;;;;;;;20.90;39.20;;;;;;5073462;28;19944;-62
2022/05/01 02:24:57;;;;;;;;;;;20.90;39.10;;;;;;5073053;28;19915;-61
2022/05/01 02:27:22;;;;;;;;;;;20.90;39.10;;;;;;5073297;28;19915;-61
2022/05/01 02:29:48;;;;;;;;;;;20.90;39.20;;;;;;5071526;28;19959;-61
2022/05/01 02:32:13;;;;;;;;;;;20.90;39.20;;;;;;5073287;28;19916;-61
2022/05/01 02:34:40;;;;;;;;;;;20.90;39.20;;;;;;5072934;28;20406;-61
2022/05/01 02:37:06;;;;;;;;;;;20.90;39.20;;;;;;5072754;28;19958;-61
2022/05/01 02:39:32;;;;;;;;;;;20.90;39.20;;;;;;5072485;28;19913;-61
2022/05/01 02:41:58;;;;;;;;;;;20.90;39.20;;;;;;5071479;28;19980;-61
2022/05/01 02:44:24;;;;;;;;;;;20.80;39.20;;;;;;5052295;28;19921;-61
2022/05/01 02:46:49;;;;;;;;;;;20.80;39.20;;;;;;5053091;28;19974;-61
2022/05/01 02:49:15;;;;;;;;;;;20.80;39.20;;;;;;5052725;28;19912;-61
2022/05/01 02:51:40;;;;;;;;;;;20.90;39.30;;;;;;5052862;28;19956;-61
2022/05/01 02:54:05;;;;;;;;;;;20.80;39.20;;;;;;5052836;28;20481;-61
2022/05/01 02:56:31;;;;;;;;;;;20.80;39.20;;;;;;5052520;28;19988;-61
2022/05/01 02:59:09;;;;;;;;;;;20.80;39.20;;;;;;5052309;28;19908;-61
2022/05/01 03:01:35;;;;;;;;;;;20.80;39.30;;;;;;5052720;28;19908;-61
2022/05/01 03:04:00;;;;;;;;;;;20.80;39.40;;;;;;5052638;28;19908;-61
2022/05/01 03:06:26;;;;;;;;;;;20.70;39.30;;;;;;5052442;28;20487;-61
2022/05/01 03:08:51;;;;;;;;;;;20.70;39.30;;;;;;5063178;28;20315;-61
2022/05/01 03:11:17;;;;;;;;;;;20.80;39.30;;;;;;5071993;28;20015;-61
2022/05/01 03:13:43;;;;;;;;;;;20.80;39.30;;;;;;5065121;28;19909;-61
2022/05/01 03:16:08;;;;;;;;;;;20.70;39.20;;;;;;5067786;28;19920;-61
2022/05/01 03:24:02;;;;;;;;;;;20.70;39.30;;;;;;5052423;28;20001;-61
2022/05/01 03:26:27;;;;;;;;;;;20.70;39.20;;;;;;5052077;28;19983;-61
2022/05/01 03:28:53;;;;;;;;;;;20.70;39.30;;;;;;5052232;28;20361;-60
2022/05/01 03:31:18;;;;;;;;;;;20.70;39.30;;;;;;5050879;28;19923;-61
2022/05/01 03:33:44;;;;;;;;;;;20.70;39.30;;;;;;5052310;28;19909;-61
2022/05/01 03:36:10;;;;;;;;;;;20.70;39.40;;;;;;5052371;28;20017;-61
2022/05/01 03:38:36;;;;;;;;;;;20.70;39.30;;;;;;5060599;28;20384;-61
2022/05/01 03:41:03;;;;;;;;;;;20.70;39.30;;;;;;5071777;28;20012;-61
2022/05/01 03:43:28;;;;;;;;;;;20.80;39.40;;;;;;5070587;28;19958;-61
2022/05/01 03:45:54;;;;;;;;;;;20.70;39.40;;;;;;5071637;28;19925;-61
2022/05/01 03:48:19;;;;;;;;;;;20.70;39.40;;;;;;5071259;28;20003;-61
2022/05/01 03:50:44;;;;;;;;;;;20.70;39.30;;;;;;5071811;28;19908;-62
2022/05/01 03:53:10;;;;;;;;;;;20.70;39.50;;;;;;5071857;28;19913;-61
2022/05/01 03:55:36;;;;;;;;;;;20.70;39.50;;;;;;5071589;28;20600;-61
2022/05/01 03:58:02;;;;;;;;;;;20.60;39.50;;;;;;5072187;28;19908;-61
2022/05/01 04:00:27;;;;;;;;;;;20.60;39.50;;;;;;5071283;28;19909;-61
2022/05/01 04:02:53;;;;;;;;;;;20.70;39.50;;;;;;5066666;28;19944;-61
2022/05/01 04:05:18;;;;;;;;;;;20.60;39.50;;;;;;5050506;28;20327;-61
2022/05/01 04:07:44;;;;;;;;;;;20.60;39.50;;;;;;5053319;28;20439;-61
2022/05/01 04:10:10;;;;;;;;;;;20.70;39.50;;;;;;5071417;28;19915;-61
2022/05/01 04:12:36;;;;;;;;;;;20.60;39.40;;;;;;5070743;28;19912;-61
2022/05/01 04:15:03;;;;;;;;;;;20.60;39.50;;;;;;5071261;28;19946;-61
2022/05/01 04:17:29;;;;;;;;;;;20.60;39.50;;;;;;5070469;28;19912;-61
2022/05/01 04:19:54;;;;;;;;;;;20.50;39.60;;;;;;5071516;28;20391;-60
2022/05/01 04:22:20;;;;;;;;;;;20.50;39.60;;;;;;5071700;28;19909;-61
2022/05/01 04:24:46;;;;;;;;;;;20.50;39.70;;;;;;5069912;28;19908;-61
2022/05/01 04:27:11;;;;;;;;;;;20.50;39.70;;;;;;5071985;28;20380;-61
2022/05/01 04:29:37;;;;;;;;;;;20.50;39.60;;;;;;5070974;28;19935;-62
2022/05/01 04:32:04;;;;;;;;;;;20.50;39.70;;;;;;5071549;28;19962;-61
2022/05/01 04:34:30;;;;;;;;;;;20.50;39.70;;;;;;5071586;28;20002;-61
2022/05/01 04:36:55;;;;;;;;;;;20.40;39.80;;;;;;5071614;28;19999;-61
2022/05/01 04:39:21;;;;;;;;;;;20.40;39.80;;;;;;5071113;28;19916;-61
2022/05/01 04:41:47;;;;;;;;;;;20.40;39.80;;;;;;5071430;28;19920;-61
2022/05/01 04:44:12;;;;;;;;;;;20.40;39.80;;;;;;5050801;28;20301;-61
2022/05/01 04:46:38;;;;;;;;;;;20.40;39.70;;;;;;5051353;28;19913;-61
2022/05/01 04:49:03;;;;;;;;;;;20.50;39.70;;;;;;5051469;28;19956;-61
2022/05/01 04:51:28;;;;;;;;;;;20.40;39.70;;;;;;5049988;28;20339;-61
2022/05/01 04:53:54;;;;;;;;;;;20.40;39.80;;;;;;5051240;28;19917;-61
2022/05/01 04:59:07;;;;;;;;;;;20.50;39.70;;;;;;5051019;28;19971;-61
2022/05/01 05:01:35;;;;;;;;;;;20.50;39.60;;;;;;5053175;28;21220;-61
2022/05/01 05:04:01;;;;;;;;;;;20.50;39.60;;;;;;5054903;28;19909;-61
2022/05/01 05:06:26;;;;;;;;;;;20.50;39.60;;;;;;5053573;28;19936;-61
2022/05/01 05:11:35;;;;;;;;;;;20.40;39.60;;;;;;5074506;28;19919;-61
2022/05/01 05:14:01;;;;;;;;;;;20.40;39.70;;;;;;5064669;28;20019;-61
2022/05/01 05:16:29;;;;;;;;;;;20.40;39.80;;;;;;5054687;28;19913;-61
2022/05/01 05:18:54;;;;;;;;;;;20.40;39.90;;;;;;5054666;28;19913;-61
2022/05/01 05:21:20;;;;;;;;;;;20.30;39.80;;;;;;5036569;28;19999;-61
2022/05/01 05:23:45;;;;;;;;;;;20.30;39.90;;;;;;5054528;28;19909;-61
2022/05/01 05:26:11;;;;;;;;;;;20.40;39.90;;;;;;5054179;28;19909;-61
2022/05/01 05:28:36;;;;;;;;;;;20.40;39.80;;;;;;5054178;28;19913;-61
2022/05/01 05:31:03;;;;;;;;;;;20.40;39.70;;;;;;5054265;28;19992;-61
2022/05/01 05:33:28;;;;;;;;;;;20.50;39.60;;;;;;5054242;28;19912;-61
2022/05/01 05:35:54;;;;;;;;;;;20.50;39.60;;;;;;5054234;28;19995;-60
2022/05/01 05:38:19;;;;;;;;;;;20.50;39.60;;;;;;5060784;28;20327;-63
2022/05/01 05:40:45;;;;;;;;;;;20.50;39.40;;;;;;5072602;28;19909;-61
2022/05/01 05:43:10;;;;;;;;;;;20.60;39.50;;;;;;5074331;28;19913;-61
2022/05/01 05:45:36;;;;;;;;;;;20.50;39.40;;;;;;5072345;28;20021;-61
2022/05/01 05:48:02;;;;;;;;;;;20.50;39.50;;;;;;5074211;28;20459;-61
2022/05/01 05:50:28;;;;;;;;;;;20.50;39.40;;;;;;5074289;28;19915;-61
2022/05/01 05:52:54;;;;;;;;;;;20.50;39.50;;;;;;5074195;28;20280;-61
2022/05/01 05:55:19;;;;;;;;;;;20.50;39.60;;;;;;5073602;28;19913;-61
2022/05/01 05:57:45;;;;;;;;;;;20.50;39.60;;;;;;5073974;28;20402;-61
2022/05/01 06:00:10;;;;;;;;;;;20.50;39.60;;;;;;5073339;28;20284;-61
2022/05/01 06:02:36;;;;;;;;;;;20.50;39.50;;;;;;5070881;28;19940;-61
2022/05/01 06:05:01;;;;;;;;;;;20.50;39.60;;;;;;5053709;28;19909;-61
2022/05/01 06:07:27;;;;;;;;;;;20.50;39.60;;;;;;5052655;28;19908;-61
2022/05/01 06:09:52;;;;;;;;;;;20.50;39.70;;;;;;5071300;28;19914;-61
2022/05/01 06:12:18;;;;;;;;;;;20.50;39.70;;;;;;5073034;28;19919;-61
2022/05/01 06:14:44;;;;;;;;;;;20.50;39.70;;;;;;5073219;28;20281;-61
2022/05/01 06:17:10;;;;;;;;;;;20.50;39.60;;;;;;5073627;28;20390;-61
2022/05/01 06:19:36;;;;;;;;;;;20.50;39.70;;;;;;5073405;28;19962;-61
2022/05/01 06:22:01;;;;;;;;;;;20.50;39.60;;;;;;5072427;28;20013;-61
2022/05/01 06:24:27;;;;;;;;;;;20.50;39.70;;;;;;5073011;28;19935;-61
2022/05/01 06:26:52;;;;;;;;;;;20.40;39.70;;;;;;5073451;28;19956;-61
2022/05/01 06:29:17;;;;;;;;;;;20.40;39.80;;;;;;5071632;28;19999;-61
2022/05/01 06:31:43;;;;;;;;;;;20.40;39.80;;;;;;5073337;28;20012;-61
2022/05/01 06:34:09;;;;;;;;;;;20.40;39.80;;;;;;5072199;28;19912;-61
2022/05/01 06:36:35;;;;;;;;;;;20.40;39.70;;;;;;5073069;28;19938;-61
2022/05/01 06:39:00;;;;;;;;;;;20.40;39.80;;;;;;5073078;28;19926;-61
2022/05/01 06:41:25;;;;;;;;;;;20.40;39.80;;;;;;5071445;28;19915;-60
2022/05/01 06:43:51;;;;;;;;;;;20.40;39.80;;;;;;5055615;28;19952;-61
2022/05/01 06:46:16;;;;;;;;;;;20.40;39.90;;;;;;5052951;28;19921;-61
2022/05/01 06:48:42;;;;;;;;;;;20.40;39.90;;;;;;5052860;28;19948;-61
2022/05/01 06:51:07;;;;;;;;;;;20.40;39.90;;;;;;5052868;28;19909;-61
2022/05/01 06:53:33;;;;;;;;;;;20.40;39.80;;;;;;5052872;28;20324;-61
2022/05/01 06:55:58;;;;;;;;;;;20.40;39.90;;;;;;5052592;28;19912;-61
2022/05/01 06:58:24;;;;;;;;;;;20.40;39.80;;;;;;5053108;28;19912;-61
2022/05/01 07:00:51;;;;;;;;;;;20.40;39.70;;;;;;5052459;28;19916;-61
2022/05/01 07:03:17;;;;;;;;;;;20.40;40.40;;;;;;5053059;28;19912;-61
2022/05/01 07:05:43;;;;;;;;;;;20.40;39.90;;;;;;5052580;28;20388;-61
2022/05/01 07:08:08;;;;;;;;;;;20.40;39.80;;;;;;5057327;28;19920;-61
2022/05/01 07:10:33;;;;;;;;;;;20.40;39.70;;;;;;5071063;28;19919;-61
2022/05/01 07:12:59;;;;;;;;;;;20.40;39.80;;;;;;5072770;28;20257;-62
2022/05/01 07:15:24;;;;;;;;;;;20.40;39.70;;;;;;5072062;28;20287;-61
2022/05/01 07:17:50;;;;;;;;;;;20.50;39.70;;;;;;5072431;28;19908;-61
2022/05/01 07:20:15;;;;;;;;;;;20.40;39.60;;;;;;5072549;28;19915;-61
2022/05/01 07:22:41;;;;;;;;;;;20.40;39.70;;;;;;5071238;28;19999;-61
2022/05/01 07:25:06;;;;;;;;;;;20.40;39.80;;;;;;5070602;28;19912;-61
2022/05/01 07:27:32;;;;;;;;;;;20.40;39.80;;;;;;5072309;28;20035;-61
2022/05/01 07:29:57;;;;;;;;;;;20.40;39.80;;;;;;5071779;28;19916;-61
2022/05/01 07:32:23;;;;;;;;;;;20.40;39.80;;;;;;5062562;28;19919;-61
2022/05/01 07:34:48;;;;;;;;;;;20.40;39.80;;;;;;5052236;28;20293;-61
2022/05/01 07:37:14;;;;;;;;;;;20.40;39.70;;;;;;5052354;28;19917;-61
2022/05/01 07:39:39;;;;;;;;;;;20.40;39.60;;;;;;5069228;28;19959;-61
2022/05/01 07:42:05;;;;;;;;;;;20.40;39.70;;;;;;5070749;28;19909;-60
2022/05/01 07:44:30;;;;;;;;;;;20.40;40.40;;;;;;5071347;28;19921;-61
2022/05/01 07:46:57;;;;;;;;;;;20.40;39.70;;;;;;5072062;28;19912;-61
2022/05/01 07:49:23;;;;;;;;;;;20.40;39.60;;;;;;5071733;28;19909;-61
2022/05/01 07:51:48;;;;;;;;;;;20.40;39.70;;;;;;5070618;28;20281;-61
2022/05/01 07:54:14;;;;;;;;;;;20.40;39.80;;;;;;5072027;28;19969;-61
2022/05/01 07:56:39;;;;;;;;;;;20.40;39.80;;;;;;5071655;28;19999;-61
2022/05/01 07:59:05;;;;;;;;;;;20.40;39.90;;;;;;5071573;28;19909;-61
2022/05/01 08:01:31;;;;;;;;;;;20.40;40.00;;;;;;5071779;28;19909;-61
2022/05/01 08:06:40;;;;;;;;;;;20.30;40.10;;;;;;5071806;28;19915;-61
2022/05/01 08:09:05;;;;;;;;;;;20.30;40.00;;;;;;5071715;28;20364;-61
2022/05/01 08:11:31;;;;;;;;;;;20.30;40.10;;;;;;5071375;28;20364;-61
2022/05/01 08:13:56;;;;;;;;;;;20.30;40.00;;;;;;5071428;28;20342;-61
2022/05/01 08:16:22;;;;;;;;;;;20.30;40.00;;;;;;5071647;28;19909;-61
2022/05/01 08:21:32;;;;;;;;;;;20.30;40.10;;;;;;5063615;28;19916;-61
2022/05/01 08:23:58;;;;;;;;;;;20.30;40.00;;;;;;5051590;28;19915;-61
2022/05/01 08:26:24;;;;;;;;;;;20.30;40.10;;;;;;5051224;28;20011;-61
2022/05/01 08:28:52;;;;;;;;;;;20.30;40.10;;;;;;5051316;28;19987;-61
2022/05/01 08:31:18;;;;;;;;;;;20.20;40.20;;;;;;5066826;28;19908;-60
2022/05/01 08:33:43;;;;;;;;;;;20.20;40.20;;;;;;5051424;28;19919;-61
2022/05/01 08:36:09;;;;;;;;;;;20.20;40.30;;;;;;5054610;28;20396;-61
2022/05/01 08:38:37;;;;;;;;;;;20.20;40.30;;;;;;5063869;28;20288;-61
2022/05/01 08:41:03;;;;;;;;;;;20.20;40.40;;;;;;5075127;28;19942;-61
2022/05/01 08:43:28;;;;;;;;;;;20.20;40.50;;;;;;5074081;28;19924;-61
2022/05/01 08:46:06;;;;;;;;;;;20.20;40.30;;;;;;5074783;28;19925;-61
2022/05/01 08:48:50;;;;;;;;;;;20.20;40.40;;;;;;5075192;28;20265;-61
2022/05/01 08:51:16;;;;;;;;;;;20.20;40.40;;;;;;5075161;28;19909;-61
2022/05/01 08:53:42;;;;;;;;;;;20.30;40.40;;;;;;5075122;28;19931;-61
2022/05/01 08:56:07;;;;;;;;;;;20.30;40.30;;;;;;5073501;28;19913;-61
2022/05/01 08:58:33;;;;;;;;;;;20.30;40.40;;;;;;5074844;28;20357;-60
2022/05/01 09:00:58;;;;;;;;;;;20.30;40.30;;;;;;5075312;28;20288;-61
2022/05/01 09:03:24;;;;;;;;;;;20.40;40.40;;;;;;5064151;28;19915;-61
2022/05/01 09:05:50;;;;;;;;;;;20.40;40.30;;;;;;5054831;28;20293;-61
2022/05/01 09:08:16;;;;;;;;;;;20.40;40.20;;;;;;5059398;28;19908;-61
2022/05/01 09:10:42;;;;;;;;;;;20.40;40.30;;;;;;5074391;28;19971;-61
2022/05/01 09:13:08;;;;;;;;;;;20.40;40.40;;;;;;5074755;28;20390;-61
2022/05/01 09:15:33;;;;;;;;;;;20.40;40.30;;;;;;5074234;28;19912;-61
2022/05/01 09:17:59;;;;;;;;;;;20.40;40.20;;;;;;5074705;28;19938;-61
2022/05/01 09:20:25;;;;;;;;;;;20.40;40.20;;;;;;5074633;28;19915;-60
2022/05/01 09:22:51;;;;;;;;;;;20.40;40.20;;;;;;5074796;28;20284;-61
2022/05/01 09:25:17;;;;;;;;;;;20.40;40.20;;;;;;5072817;28;19908;-61
2022/05/01 09:27:42;;;;;;;;;;;20.40;40.40;;;;;;5074578;28;19908;-61
2022/05/01 09:30:08;;;;;;;;;;;20.40;40.40;;;;;;5072803;28;19908;-61
2022/05/01 09:32:33;;;;;;;;;;;20.40;40.60;;;;;;5074496;28;19916;-61
2022/05/01 09:35:00;;;;;;;;;;;20.40;40.60;;;;;;5074204;28;19950;-61
2022/05/01 09:37:25;;;;;;;;;;;20.40;40.60;;;;;;5074425;28;19908;-61
2022/05/01 09:39:51;;;;;;;;;;;20.30;40.60;;;;;;5073739;28;20253;-61
2022/05/01 09:42:18;;;;;;;;;;;20.40;40.80;;;;;;5074351;28;20305;-61
2022/05/01 09:44:44;;;;;;;;;;;20.40;40.80;;;;;;5073420;28;19924;-61
2022/05/01 09:47:09;;;;;;;;;;;20.30;40.80;;;;;;5073015;28;19915;-61
2022/05/01 09:49:48;;;;;;;;;;;20.30;40.70;;;;;;5073995;28;19966;-61
2022/05/01 09:52:13;;;;;;;;;;;20.30;40.90;;;;;;5070760;28;20297;-61
2022/05/01 09:54:38;;;;;;;;;;;20.30;41.00;;;;;;5053623;28;19932;-61
2022/05/01 09:57:05;;;;;;;;;;;20.30;41.10;;;;;;5054167;28;19909;-61
2022/05/01 09:59:30;;;;;;;;;;;20.30;41.00;;;;;;5053544;28;19915;-61
2022/05/01 10:02:02;;;;;;;;;;;20.20;41.10;;;;;;5052640;28;20008;-61
2022/05/01 10:04:28;;;;;;;;;;;20.30;41.20;;;;;;5053778;28;19951;-62
2022/05/01 10:06:54;;;;;;;;;;;20.30;41.10;;;;;;5052863;28;19959;-62
2022/05/01 10:09:20;;;;;;;;;;;20.30;41.10;;;;;;5066846;28;20010;-61
2022/05/01 10:11:46;;;;;;;;;;;20.30;41.40;;;;;;5072222;28;19916;-61
2022/05/01 10:14:11;;;;;;;;;;;20.30;41.00;;;;;;5072071;28;19932;-61
2022/05/01 10:16:40;;;;;;;;;;;20.40;41.00;;;;;;5073441;28;19912;-61
2022/05/01 10:19:05;;;;;;;;;;;20.30;40.90;;;;;;5055892;28;19915;-61
2022/05/01 10:21:31;;;;;;;;;;;20.30;40.80;;;;;;5072103;28;20011;-61
2022/05/01 10:23:57;;;;;;;;;;;20.30;40.80;;;;;;5073427;28;19954;-61
2022/05/01 10:26:27;;;;;;;;;;;20.30;40.80;;;;;;5071977;28;19908;-62
2022/05/01 10:29:04;;;;;;;;;;;20.30;40.90;;;;;;5071676;28;19920;-62
2022/05/01 10:34:51;;;;;;;;;;;20.40;40.70;;;;;;5079415;28;20387;-61
2022/05/01 10:37:35;;;;;;;;;;;20.40;40.70;;;;;;5072076;28;20372;-61
2022/05/01 10:40:00;;;;;;;;;;;20.40;40.70;;;;;;5072680;28;19958;-61
2022/05/01 10:42:33;;;;;;;;;;;20.40;40.70;;;;;;5062309;28;19909;-61
2022/05/01 10:44:59;;;;;;;;;;;20.30;40.90;;;;;;5052516;28;20399;-61
2022/05/01 10:47:34;;;;;;;;;;;20.30;40.90;;;;;;5051832;28;19916;-61
2022/05/01 10:50:04;;;;;;;;;;;20.30;40.90;;;;;;5051521;28;20400;-62
2022/05/01 10:52:30;;;;;;;;;;;20.30;40.90;;;;;;5052923;28;19963;-61
2022/05/01 10:55:04;;;;;;;;;;;20.30;40.90;;;;;;5052326;28;19913;-61
2022/05/01 10:57:30;;;;;;;;;;;20.30;40.90;;;;;;5059236;28;19913;-61
2022/05/01 11:00:06;;;;;;;;;;;20.40;40.90;;;;;;5052194;28;19909;-61
2022/05/01 11:02:48;;;;;;;;;;;20.30;40.80;;;;;;5053024;28;19912;-61
2022/05/01 11:05:34;;;;;;;;;;;20.40;40.90;;;;;;5052786;28;19909;-61
2022/05/01 11:08:00;;;;;;;;;;;20.30;40.90;;;;;;5049626;28;19908;-61
2022/05/01 11:10:26;;;;;;;;;;;20.30;40.90;;;;;;5072182;28;20462;-61
2022/05/01 11:12:51;;;;;;;;;;;20.30;40.90;;;;;;5072499;28;20376;-60
2022/05/01 11:15:19;;;;;;;;;;;20.40;40.90;;;;;;5070561;28;19912;-61
2022/05/01 11:17:47;;;;;;;;;;;20.40;40.80;;;;;;5071155;28;19912;-61
2022/05/01 11:20:19;;;;;;;;;;;20.30;40.70;;;;;;5072231;28;19912;-61
2022/05/01 11:22:45;;;;;;;;;;;20.30;40.70;;;;;;5072426;28;19919;-61
2022/05/01 11:25:11;;;;;;;;;;;20.30;40.60;;;;;;5070686;28;19909;-61
2022/05/01 11:27:49;;;;;;;;;;;20.30;40.70;;;;;;5072283;28;19909;-61
2022/05/01 11:30:26;;;;;;;;;;;20.30;40.70;;;;;;5070363;28;19913;-62
2022/05/01 11:33:02;;;;;;;;;;;20.30;40.70;;;;;;5052450;28;19920;-61
2022/05/01 11:35:46;;;;;;;;;;;20.30;40.70;;;;;;5051936;28;19913;-61
2022/05/01 11:38:11;;;;;;;;;;;20.30;40.70;;;;;;5057419;28;19918;-61
2022/05/01 11:40:37;;;;;;;;;;;20.40;40.90;;;;;;5053712;28;19916;-62
2022/05/01 11:43:18;;;;;;;;;;;20.40;40.80;;;;;;5070767;28;19908;-61
2022/05/01 11:45:45;;;;;;;;;;;20.40;40.80;;;;;;5071423;28;19979;-61
2022/05/01 11:48:11;;;;;;;;;;;20.40;40.80;;;;;;5072452;28;19915;-61
2022/05/01 11:50:37;;;;;;;;;;;20.40;40.80;;;;;;5070737;28;19970;-61
2022/05/01 11:53:02;;;;;;;;;;;20.40;40.70;;;;;;5072028;28;19988;-61
2022/05/01 12:02:24;;;;;;;;;;;20.40;40.70;;;;;;5071477;28;19909;-61
2022/05/01 12:03:46;;;;;;;;;;;20.40;40.70;;;;;;5070752;28;20435;-61
2022/05/01 12:06:22;;;;;;;;;;;20.40;40.70;;;;;;5072065;28;20364;-61
2022/05/01 12:08:50;;;;;;;;;;;20.40;40.70;;;;;;5070163;28;19916;-61
2022/05/01 12:11:26;;;;;;;;;;;20.50;40.70;;;;;;5071139;28;19970;-61
2022/05/01 12:14:01;;;;;;;;;;;20.40;40.70;;;;;;5071736;28;19924;-61
2022/05/01 12:16:27;;;;;;;;;;;20.40;40.60;;;;;;5071741;28;19956;-61
2022/05/01 12:18:52;;;;;;;;;;;20.50;40.70;;;;;;5070404;28;19959;-61
2022/05/01 12:21:27;;;;;;;;;;;20.50;40.70;;;;;;5060396;28;19969;-61
2022/05/01 12:23:53;;;;;;;;;;;20.50;40.80;;;;;;5051596;28;19913;-61
2022/05/01 12:26:18;;;;;;;;;;;20.50;40.70;;;;;;5051233;28;20281;-61
2022/05/01 12:28:43;;;;;;;;;;;20.50;40.70;;;;;;5051157;28;20287;-61
2022/05/01 12:31:09;;;;;;;;;;;20.50;40.70;;;;;;5051537;28;20007;-61
2022/05/01 12:33:35;;;;;;;;;;;20.50;40.60;;;;;;5051362;28;19935;-61
2022/05/01 12:36:01;;;;;;;;;;;20.50;40.60;;;;;;5051405;28;19909;-61
2022/05/01 12:38:27;;;;;;;;;;;20.50;40.60;;;;;;5059174;28;20361;-61
2022/05/01 12:43:52;;;;;;;;;;;20.60;40.50;;;;;;5071075;28;20015;-61
2022/05/01 12:46:24;;;;;;;;;;;20.60;40.50;;;;;;5071521;28;19929;-61
2022/05/01 12:48:50;;;;;;;;;;;20.60;40.60;;;;;;5070115;28;19920;-61
2022/05/01 12:51:15;;;;;;;;;;;20.60;40.60;;;;;;5071678;28;19908;-61
2022/05/01 12:53:42;;;;;;;;;;;20.50;40.60;;;;;;5071215;28;20003;-61
2022/05/01 12:56:21;;;;;;;;;;;20.50;41.20;;;;;;5070935;28;20392;-61
2022/05/01 12:58:47;;;;;;;;;;;20.60;40.40;;;;;;5069914;28;19954;-61
2022/05/01 13:01:27;;;;;;;;;;;20.60;40.40;;;;;;5071259;28;19952;-61
2022/05/01 13:03:53;;;;;;;;;;;20.70;40.40;;;;;;5077996;28;20411;-61
2022/05/01 13:06:18;;;;;;;;;;;20.70;40.40;;;;;;5071280;28;19916;-61
2022/05/01 13:08:45;;;;;;;;;;;20.60;40.30;;;;;;5071219;28;19912;-61
2022/05/01 13:11:27;;;;;;;;;;;20.70;40.40;;;;;;5054034;28;19954;-61
2022/05/01 13:13:57;;;;;;;;;;;20.70;40.40;;;;;;5051092;28;19916;-60
2022/05/01 13:16:31;;;;;;;;;;;20.70;40.40;;;;;;5066553;28;19908;-62
2022/05/01 13:19:05;;;;;;;;;;;20.70;40.20;;;;;;5051235;28;19908;-62
2022/05/01 13:21:32;;;;;;;;;;;20.80;39.90;;;;;;5051773;28;19952;-61
2022/05/01 13:24:01;;;;;;;;;;;20.80;40.00;;;;;;5054609;28;20293;-61
2022/05/01 13:26:26;;;;;;;;;;;20.90;39.90;;;;;;5054214;28;19909;-61
2022/05/01 13:28:52;;;;;;;;;;;20.90;40.10;;;;;;5054213;28;19920;-61
2022/05/01 13:31:17;;;;;;;;;;;20.80;39.90;;;;;;5054386;28;20149;-62
2022/05/01 13:33:43;;;;;;;;;;;20.90;40.10;;;;;;5054681;28;19913;-61
2022/05/01 13:36:09;;;;;;;;;;;20.90;40.20;;;;;;5054342;28;19913;-61
2022/05/01 13:38:34;;;;;;;;;;;20.80;40.20;;;;;;5061469;28;19908;-61
2022/05/01 13:46:28;;;;;;;;;;;20.80;40.00;;;;;;5054143;28;19948;-61
2022/05/01 13:48:54;;;;;;;;;;;20.80;40.00;;;;;;5054220;28;19913;-61
2022/05/01 13:51:21;;;;;;;;;;;20.80;40.20;;;;;;5053161;28;19908;-61
2022/05/01 13:53:47;;;;;;;;;;;20.90;40.00;;;;;;5054366;28;19919;-61
2022/05/01 13:56:15;;;;;;;;;;;20.90;40.00;;;;;;5035694;28;19909;-61
2022/05/01 13:58:40;;;;;;;;;;;20.80;40.10;;;;;;5053609;28;20403;-61
2022/05/01 14:01:06;;;;;;;;;;;20.90;40.00;;;;;;5053874;28;19909;-61
2022/05/01 14:03:32;;;;;;;;;;;20.80;39.90;;;;;;5053808;28;19913;-61
2022/05/01 14:05:57;;;;;;;;;;;20.90;39.80;;;;;;5052612;28;19912;-61
2022/05/01 14:08:23;;;;;;;;;;;20.90;40.00;;;;;;5059427;28;20041;-61
2022/05/01 14:10:48;;;;;;;;;;;20.90;39.70;;;;;;5073457;28;19974;-61
2022/05/01 14:13:13;;;;;;;;;;;20.90;39.70;;;;;;5072569;28;19942;-61
2022/05/01 14:15:39;;;;;;;;;;;21.00;39.90;;;;;;5073302;28;19912;-62
2022/05/01 14:18:04;;;;;;;;;;;21.00;40.00;;;;;;5072519;28;19909;-61
2022/05/01 14:20:30;;;;;;;;;;;21.00;40.00;;;;;;5068982;28;19909;-61
2022/05/01 14:22:56;;;;;;;;;;;21.00;39.80;;;;;;5053594;28;19948;-61
2022/05/01 14:25:21;;;;;;;;;;;21.00;39.70;;;;;;5053154;28;19916;-61
2022/05/01 14:27:47;;;;;;;;;;;21.00;39.60;;;;;;5053536;28;20107;-61
2022/05/01 14:30:13;;;;;;;;;;;21.10;39.40;;;;;;5052996;28;19909;-61
2022/05/01 14:32:46;;;;;;;;;;;21.10;39.80;;;;;;5052669;28;19913;-61
2022/05/01 14:35:13;;;;;;;;;;;21.10;39.50;;;;;;5053098;28;19909;-61
2022/05/01 14:37:39;;;;;;;;;;;21.10;39.40;;;;;;5054176;28;19999;-61
2022/05/01 14:40:05;;;;;;;;;;;21.10;39.60;;;;;;5072871;28;20345;-61
2022/05/01 14:42:31;;;;;;;;;;;21.10;39.60;;;;;;5072002;28;19931;-61
2022/05/01 14:44:59;;;;;;;;;;;21.10;39.60;;;;;;5072670;28;19926;-61
2022/05/01 14:47:25;;;;;;;;;;;21.10;39.60;;;;;;5073064;28;19912;-61
2022/05/01 14:49:51;;;;;;;;;;;21.10;39.50;;;;;;5072887;28;20373;-61
2022/05/01 14:52:16;;;;;;;;;;;21.20;39.60;;;;;;5071666;28;19928;-61